Time;durP1;ratioP1;P1;durP2;ratioP2;P2;SDS_P1;SDS_P2;PMS_P1;PMS_P2;Temp;Humidity;BMP_temperature;BMP_pressure;BME280_temperature;BME280_humidity;BME280_pressure;Samples;Min_cycle;Max_cycle;Signal;HPM_P1;HPM_P2
2022/11/04 00:00:39;;;;;;;11.13;3.80;;;;;;;9.61;98.11;99522.47;5997311;28;20059;-68
2022/11/04 00:03:35;;;;;;;8.90;3.07;;;;;;;9.66;98.27;99532.53;5995840;28;20043;-68
2022/11/04 00:06:30;;;;;;;7.23;2.30;;;;;;;9.58;98.44;99515.69;5997985;28;20099;-69
2022/11/04 00:09:27;;;;;;;6.73;3.13;;;;;;;9.69;98.18;99540.97;5998590;28;20046;-68
2022/11/04 00:12:25;;;;;;;7.80;3.45;;;;;;;9.72;97.74;99537.16;5997481;28;20394;-67
2022/11/04 00:18:35;;;;;;;6.72;3.05;;;;;;;9.59;97.76;99506.72;5997650;28;20038;-67
2022/11/04 00:34:31;;;;;;;7.10;3.22;;;;;;;9.75;97.57;99510.34;5997896;28;20479;-68
2022/11/04 00:37:26;;;;;;;8.37;3.10;;;;;;;9.77;97.36;99518.94;5997027;28;20035;-68
2022/11/04 00:40:22;;;;;;;7.00;2.67;;;;;;;9.77;97.23;99519.78;5997083;28;20027;-69
2022/11/04 00:43:17;;;;;;;6.53;2.83;;;;;;;9.65;97.55;99496.50;5997313;28;20086;-68
2022/11/04 00:46:12;;;;;;;10.70;3.30;;;;;;;9.72;97.95;99510.69;6000911;28;20097;-68
2022/11/04 00:49:08;;;;;;;5.47;2.60;;;;;;;9.82;98.19;99516.59;6001979;28;20325;-68
2022/11/04 00:52:03;;;;;;;7.23;2.63;;;;;;;10.09;96.26;99514.34;6001020;28;20052;-69
2022/11/04 00:54:58;;;;;;;5.90;2.78;;;;;;;10.07;95.39;99502.28;6001935;28;20049;-69
2022/11/04 00:57:54;;;;;;;5.57;2.83;;;;;;;10.20;94.95;99515.00;6001673;28;20027;-69
2022/11/04 01:00:50;;;;;;;10.77;3.28;;;;;;;10.25;95.21;99516.13;6000399;28;20270;-68
2022/11/04 01:03:47;;;;;;;5.47;2.40;;;;;;;10.29;94.57;99512.13;6001631;28;20085;-69
2022/11/04 01:06:42;;;;;;;5.68;2.33;;;;;;;10.30;94.15;99513.78;6001257;28;20094;-68
2022/11/04 01:09:37;;;;;;;6.13;2.90;;;;;;;10.27;94.61;99518.63;6000717;28;20034;-68
2022/11/04 01:12:33;;;;;;;8.53;3.30;;;;;;;10.25;94.59;99518.78;6000474;28;20089;-69
2022/11/04 01:15:28;;;;;;;6.83;2.90;;;;;;;10.21;95.26;99514.00;6001450;28;20080;-69
2022/11/04 01:18:24;;;;;;;6.50;3.10;;;;;;;10.20;95.93;99518.47;6001209;28;20394;-68
2022/11/04 01:21:19;;;;;;;5.85;2.47;;;;;;;10.23;95.85;99512.81;5999502;28;20333;-69
2022/11/04 01:24:14;;;;;;;6.45;2.70;;;;;;;10.22;96.16;99511.16;6000280;28;20039;-68
2022/11/04 01:27:10;;;;;;;6.20;2.37;;;;;;;10.27;96.56;99519.44;6001147;28;20050;-69
2022/11/04 01:30:06;;;;;;;8.00;2.37;;;;;;;10.23;96.51;99504.88;6000578;28;20274;-69
2022/11/04 01:33:01;;;;;;;6.30;2.80;;;;;;;10.52;96.68;99520.94;6000727;28;20991;-68
2022/11/04 01:35:59;;;;;;;6.03;2.30;;;;;;;10.64;95.34;99506.28;6000031;28;20055;-70
2022/11/04 01:38:55;;;;;;;9.13;2.63;;;;;;;10.58;95.38;99512.28;6000784;28;20837;-69
2022/11/04 01:41:50;;;;;;;7.07;2.90;;;;;;;10.51;96.62;99514.00;6000192;28;20161;-68
2022/11/04 01:44:53;;;;;;;6.67;2.33;;;;;;;10.79;97.14;99524.09;6001196;28;20039;-68
2022/11/04 01:47:55;;;;;;;6.78;2.67;;;;;;;11.14;95.65;99518.19;6000898;28;20114;-70
2022/11/04 01:50:51;;;;;;;6.55;2.35;;;;;;;11.20;94.91;99517.44;5999738;28;20511;-69
2022/11/04 01:53:48;;;;;;;4.80;2.40;;;;;;;11.21;95.63;99513.81;6000353;28;20114;-69
2022/11/04 01:56:44;;;;;;;7.30;2.88;;;;;;;11.15;96.77;99515.34;5998663;28;20066;-68
2022/11/04 01:59:40;;;;;;;5.88;2.55;;;;;;;11.17;98.36;99534.56;6000477;28;20031;-68
2022/11/04 02:02:49;;;;;;;6.63;2.50;;;;;;;11.00;99.14;99532.22;5999873;28;20054;-67
2022/11/04 02:05:45;;;;;;;6.50;3.00;;;;;;;10.93;100.00;99544.53;6000980;28;20117;-69
2022/11/04 02:08:41;;;;;;;7.82;2.72;;;;;;;10.92;100.00;99559.63;6000242;28;20039;-68
2022/11/04 02:14:50;;;;;;;6.40;2.83;;;;;;;10.71;100.00;99552.31;6000405;28;20035;-67
2022/11/04 02:17:55;;;;;;;7.70;2.80;;;;;;;10.73;100.00;99570.69;5998281;28;20069;-67
2022/11/04 02:21:22;;;;;;;6.07;2.40;;;;;;;10.65;100.00;99574.19;5999402;28;20046;-68
2022/11/04 02:24:23;;;;;;;10.02;3.05;;;;;;;10.58;100.00;99578.56;5964562;28;20732;-68
2022/11/04 02:27:47;;;;;;;8.23;2.90;;;;;;;10.51;100.00;99574.97;6000240;28;20042;-68
2022/11/04 02:31:02;;;;;;;5.22;2.55;;;;;;;10.43;100.00;99556.47;5997515;28;20498;-68
2022/11/04 02:34:21;;;;;;;6.85;2.78;;;;;;;10.44;100.00;99576.63;5997868;28;20026;-69
2022/11/04 02:37:31;;;;;;;6.32;2.75;;;;;;;10.40;100.00;99571.88;5998206;28;20114;-68
2022/11/04 02:40:33;;;;;;;6.53;2.80;;;;;;;10.38;100.00;99564.06;5998393;28;20041;-68
2022/11/04 02:43:40;;;;;;;8.13;3.90;;;;;;;10.39;100.00;99576.34;5997905;28;20343;-68
2022/11/04 02:46:48;;;;;;;5.13;2.97;;;;;;;10.36;100.00;99571.38;5998808;28;20047;-68
2022/11/04 02:49:54;;;;;;;7.57;3.47;;;;;;;10.28;100.00;99563.47;5999253;28;20032;-68
2022/11/04 02:53:00;;;;;;;7.95;3.13;;;;;;;10.26;100.00;99552.22;5997586;28;20069;-68
2022/11/04 02:55:56;;;;;;;9.15;4.03;;;;;;;10.28;100.00;99560.81;5987986;28;20043;-67
2022/11/04 02:58:55;;;;;;;7.32;3.38;;;;;;;10.23;100.00;99549.09;5997598;28;20525;-67
2022/11/04 03:01:52;;;;;;;10.45;4.80;;;;;;;10.20;100.00;99539.66;5996425;28;20412;-67
2022/11/04 03:04:49;;;;;;;11.43;3.75;;;;;;;10.25;100.00;99545.25;5997722;28;20073;-68
2022/11/04 03:07:46;;;;;;;13.38;4.15;;;;;;;10.23;100.00;99541.13;5996321;28;20042;-67
2022/11/04 03:10:43;;;;;;;11.52;4.45;;;;;;;10.21;100.00;99535.19;5996745;28;20026;-67
2022/11/04 03:13:53;;;;;;;10.85;3.28;;;;;;;10.19;100.00;99538.03;5997125;28;20038;-67
2022/11/04 03:16:51;;;;;;;10.00;4.18;;;;;;;10.21;100.00;99551.91;5998957;28;20046;-67
2022/11/04 03:19:53;;;;;;;8.60;4.03;;;;;;;10.11;100.00;99530.06;5998420;28;20749;-67
2022/11/04 03:22:48;;;;;;;8.10;3.67;;;;;;;10.14;100.00;99543.00;5996575;28;20114;-67
2022/11/04 03:25:45;;;;;;;8.20;3.83;;;;;;;10.16;100.00;99543.66;5998275;28;20553;-67
2022/11/04 03:28:50;;;;;;;9.98;3.78;;;;;;;10.23;100.00;99570.28;5996472;28;20278;-68
2022/11/04 03:31:54;;;;;;;12.50;4.13;;;;;;;10.27;100.00;99572.44;5998008;28;20038;-67
2022/11/04 03:34:50;;;;;;;11.60;3.70;;;;;;;10.29;100.00;99586.31;5998195;28;20034;-67
2022/11/04 03:37:46;;;;;;;8.82;3.83;;;;;;;10.28;100.00;99600.56;5998427;28;20088;-67
2022/11/04 03:40:42;;;;;;;6.00;3.08;;;;;;;10.19;100.00;99598.97;5996731;28;20567;-67
2022/11/04 03:43:40;;;;;;;8.15;3.22;;;;;;;10.28;100.00;99623.56;5998425;28;20121;-67
2022/11/04 03:46:35;;;;;;;6.38;2.58;;;;;;;10.29;100.00;99627.88;5997064;28;20042;-67
2022/11/04 03:49:30;;;;;;;5.73;2.63;;;;;;;10.27;100.00;99638.69;5997693;28;20035;-67
2022/11/04 03:52:26;;;;;;;5.13;2.15;;;;;;;10.15;100.00;99630.25;5996444;28;20274;-67
2022/11/04 03:55:40;;;;;;;4.13;1.90;;;;;;;10.25;100.00;99647.75;5997871;28;20057;-67
2022/11/04 03:58:48;;;;;;;5.68;1.80;;;;;;;10.21;100.00;99652.59;5994311;28;20035;-68
2022/11/04 04:01:49;;;;;;;3.22;1.63;;;;;;;10.15;100.00;99651.44;5994289;28;20038;-68
2022/11/04 04:05:03;;;;;;;5.72;2.05;;;;;;;10.16;100.00;99647.78;5996472;28;20039;-67
2022/11/04 04:08:17;;;;;;;3.33;1.60;;;;;;;10.13;100.00;99655.25;5996923;28;20371;-68
2022/11/04 04:11:35;;;;;;;1.98;1.40;;;;;;;10.11;100.00;99663.34;5991250;28;20093;-67
2022/11/04 04:14:39;;;;;;;4.68;1.70;;;;;;;9.99;100.00;99651.44;5996465;28;20034;-67
2022/11/04 04:18:08;;;;;;;2.87;1.60;;;;;;;10.06;100.00;99667.47;5996818;28;20514;-67
2022/11/04 04:21:06;;;;;;;2.92;1.35;;;;;;;9.99;100.00;99663.84;5968911;28;20082;-67
2022/11/04 04:27:32;;;;;;;3.35;1.42;;;;;;;9.85;100.00;99662.72;6001109;28;20034;-67
2022/11/04 04:30:27;;;;;;;2.70;1.30;;;;;;;9.96;100.00;99685.38;6000804;28;20078;-67
2022/11/04 04:33:22;;;;;;;3.42;1.30;;;;;;;9.88;100.00;99688.03;6001365;28;20027;-67
2022/11/04 04:36:18;;;;;;;1.77;1.10;;;;;;;9.88;100.00;99688.03;6002485;28;20030;-67
2022/11/04 04:45:51;;;;;;;2.97;1.80;;;;;;;9.68;100.00;99678.75;6000955;28;20034;-68
2022/11/04 04:48:46;;;;;;;;;;;;;;;9.74;100.00;99709.88;6000231;28;20043;-68
2022/11/04 04:51:44;;;;;;;2.43;1.47;;;;;;;9.75;100.00;99709.72;6001363;28;19933;-67
2022/11/04 04:54:39;;;;;;;4.35;1.95;;;;;;;9.63;100.00;99696.97;6002295;28;20114;-67
2022/11/04 04:57:35;;;;;;;4.10;2.40;;;;;;;9.59;100.00;99699.94;6001637;28;20044;-67
2022/11/04 05:00:31;;;;;;;5.68;2.28;;;;;;;9.59;100.00;99702.59;6001212;28;20042;-67
2022/11/04 05:03:26;;;;;;;3.83;2.28;;;;;;;9.65;100.00;99722.28;6000802;28;20705;-67
2022/11/04 05:06:22;;;;;;;4.73;2.23;;;;;;;9.55;100.00;99714.50;6001510;28;20046;-68
2022/11/04 05:09:17;;;;;;;5.60;2.60;;;;;;;9.62;100.00;99735.03;6001206;28;20041;-67
2022/11/04 05:12:12;;;;;;;4.37;2.53;;;;;;;9.56;100.00;99734.69;6000478;28;20038;-67
2022/11/04 05:15:08;;;;;;;3.93;2.23;;;;;;;9.54;100.00;99734.00;6001794;28;20026;-67
2022/11/04 05:18:03;;;;;;;6.03;2.50;;;;;;;9.56;100.00;99737.34;6001566;28;20035;-67
2022/11/04 05:21:03;;;;;;;5.27;2.30;;;;;;;9.56;100.00;99752.41;6000371;28;20034;-67
2022/11/04 05:23:58;;;;;;;4.60;2.70;;;;;;;9.59;100.00;99757.38;6001634;28;20386;-67
2022/11/04 05:26:53;;;;;;;4.37;2.40;;;;;;;9.57;100.00;99760.16;6000212;28;20054;-68
2022/11/04 05:29:49;;;;;;;4.03;2.37;;;;;;;9.45;100.00;99745.59;6000732;28;20062;-68
2022/11/04 05:32:44;;;;;;;4.27;2.67;;;;;;;9.39;100.00;99748.88;6000048;28;20046;-67
2022/11/04 05:35:39;;;;;;;3.83;2.40;;;;;;;9.36;100.00;99772.19;6000618;28;20130;-68
2022/11/04 05:38:35;;;;;;;5.53;2.57;;;;;;;9.22;100.00;99767.50;6000659;28;20483;-67
2022/11/04 05:41:31;;;;;;;6.20;2.78;;;;;;;9.07;100.00;99764.66;6000090;28;20023;-67
2022/11/04 05:44:26;;;;;;;5.10;2.90;;;;;;;9.03;100.00;99775.69;6000396;28;20390;-68
2022/11/04 05:47:21;;;;;;;4.07;2.67;;;;;;;9.01;100.00;99793.53;6000822;28;20041;-68
2022/11/04 05:50:17;;;;;;;4.13;2.77;;;;;;;8.98;100.00;99800.81;6000024;28;20034;-67
2022/11/04 05:53:12;;;;;;;5.97;2.90;;;;;;;8.92;100.00;99779.47;6000702;28;20748;-67
2022/11/04 05:56:07;;;;;;;9.80;3.17;;;;;;;8.91;100.00;99786.56;6000710;28;20734;-68
2022/11/04 05:59:03;;;;;;;7.35;4.50;;;;;;;8.82;100.00;99792.81;6000669;28;20101;-68
2022/11/04 06:01:58;;;;;;;6.33;3.00;;;;;;;8.88;100.00;99804.56;5999404;28;20030;-68
2022/11/04 06:04:53;;;;;;;7.40;3.90;;;;;;;8.79;100.00;99806.34;6000358;28;20071;-68
2022/11/04 06:07:49;;;;;;;5.27;3.20;;;;;;;8.83;100.00;99815.59;6001005;28;20030;-67
2022/11/04 06:10:44;;;;;;;6.20;3.50;;;;;;;8.77;100.00;99799.56;5999797;28;20030;-68
2022/11/04 06:13:39;;;;;;;6.37;3.10;;;;;;;8.77;100.00;99818.88;6000362;28;20270;-68
2022/11/04 06:16:35;;;;;;;5.83;3.23;;;;;;;8.60;100.00;99817.13;6000417;28;20042;-68
2022/11/04 06:19:30;;;;;;;5.83;3.00;;;;;;;8.66;100.00;99831.53;5999958;28;20051;-67
2022/11/04 06:22:25;;;;;;;5.07;3.67;;;;;;;8.52;100.00;99843.50;5999665;28;20429;-68
2022/11/04 06:25:20;;;;;;;7.27;3.70;;;;;;;8.57;100.00;99859.72;5999984;28;20038;-68
2022/11/04 06:28:16;;;;;;;6.87;3.70;;;;;;;8.53;100.00;99831.13;6000113;28;20285;-68
2022/11/04 06:31:12;;;;;;;6.50;3.30;;;;;;;8.56;100.00;99833.44;5999352;28;20085;-68
2022/11/04 06:34:07;;;;;;;6.78;3.78;;;;;;;8.61;100.00;99829.38;6000096;28;20177;-69
2022/11/04 06:37:03;;;;;;;6.93;3.50;;;;;;;8.72;100.00;99831.75;5999839;28;20031;-68
2022/11/04 06:39:58;;;;;;;6.25;3.58;;;;;;;8.65;100.00;99833.34;5999427;28;20314;-68
2022/11/04 06:42:54;;;;;;;6.33;3.87;;;;;;;8.74;100.00;99847.44;5998577;28;20031;-69
2022/11/04 06:45:53;;;;;;;8.30;4.30;;;;;;;8.87;100.00;99861.06;5999577;28;20035;-69
2022/11/04 06:48:48;;;;;;;7.72;3.92;;;;;;;8.84;99.68;99843.69;5999594;28;20038;-68
2022/11/04 06:51:44;;;;;;;6.83;3.70;;;;;;;8.91;99.05;99855.28;5999102;28;20026;-68
2022/11/04 06:54:39;;;;;;;8.27;3.78;;;;;;;8.97;98.70;99857.31;5999570;28;20109;-69
2022/11/04 06:57:35;;;;;;;7.70;3.30;;;;;;;8.95;98.41;99853.19;5999531;28;20070;-68
2022/11/04 07:00:30;;;;;;;6.20;3.83;;;;;;;9.01;98.20;99847.28;5998282;28;20331;-68
2022/11/04 07:03:26;;;;;;;7.25;3.50;;;;;;;9.03;98.29;99857.66;5996484;28;20273;-68
2022/11/04 07:06:22;;;;;;;6.55;3.90;;;;;;;9.02;98.49;99858.69;5998866;28;20557;-68
2022/11/04 07:09:17;;;;;;;5.00;3.10;;;;;;;9.03;97.91;99863.78;5998607;28;20035;-68
2022/11/04 07:12:13;;;;;;;5.50;3.60;;;;;;;9.12;97.88;99881.38;5998719;28;20080;-68
2022/11/04 07:15:09;;;;;;;7.47;4.10;;;;;;;9.05;97.15;99869.75;5998889;28;20081;-67
2022/11/04 07:18:05;;;;;;;9.88;4.50;;;;;;;9.12;97.40;99881.38;5999204;28;20034;-67
2022/11/04 07:21:01;;;;;;;8.98;4.13;;;;;;;9.11;96.79;99874.41;5998285;28;20042;-67
2022/11/04 07:23:57;;;;;;;6.13;3.08;;;;;;;9.05;96.79;99875.03;5998663;28;20031;-67
2022/11/04 07:26:54;;;;;;;5.70;3.33;;;;;;;9.20;96.66;99893.81;5998498;28;20034;-68
2022/11/04 07:29:49;;;;;;;5.45;2.80;;;;;;;9.14;96.95;99883.84;5998397;28;20034;-69
2022/11/04 07:32:45;;;;;;;4.80;2.70;;;;;;;9.21;96.39;99891.03;5998275;28;20039;-67
2022/11/04 07:35:41;;;;;;;5.80;2.60;;;;;;;9.26;96.34;99894.03;5998765;28;20031;-68
2022/11/04 07:38:36;;;;;;;5.10;3.00;;;;;;;9.38;95.49;99900.69;5998119;28;20085;-68
2022/11/04 07:41:31;;;;;;;4.47;2.30;;;;;;;9.66;95.40;99911.06;5998302;28;20546;-68
2022/11/04 07:44:27;;;;;;;4.70;2.40;;;;;;;9.59;94.67;99911.69;5998722;28;20789;-68
2022/11/04 07:47:22;;;;;;;4.40;2.27;;;;;;;9.63;93.88;99911.38;5997417;28;20034;-68
2022/11/04 07:50:17;;;;;;;3.97;2.50;;;;;;;9.85;92.35;99919.56;5997929;28;20804;-68
2022/11/04 07:53:13;;;;;;;5.85;2.55;;;;;;;9.81;92.21;99926.16;5998413;28;20067;-68
2022/11/04 07:56:13;;;;;;;7.23;2.50;;;;;;;9.83;92.48;99949.84;6003558;28;20070;-68
2022/11/04 07:59:09;;;;;;;5.88;2.13;;;;;;;9.84;91.81;99936.44;6003349;28;20955;-68
2022/11/04 08:02:05;;;;;;;6.38;2.78;;;;;;;9.84;91.85;99936.44;6002780;28;20485;-68
2022/11/04 08:05:01;;;;;;;6.07;2.80;;;;;;;9.87;91.28;99948.53;6003287;28;20114;-69
2022/11/04 08:07:56;;;;;;;4.67;2.23;;;;;;;9.85;91.92;99934.63;6003223;28;20359;-68
2022/11/04 08:11:03;;;;;;;4.55;2.33;;;;;;;9.80;91.56;99939.56;6002317;28;20498;-68
2022/11/04 08:14:02;;;;;;;9.40;2.40;;;;;;;9.81;91.67;99942.03;6002864;28;20035;-67
2022/11/04 08:16:57;;;;;;;6.78;3.10;;;;;;;9.82;91.56;99964.06;6003068;28;20138;-68
2022/11/04 08:19:52;;;;;;;11.50;4.77;;;;;;;9.74;91.40;99938.38;6003168;28;20034;-67
2022/11/04 08:22:48;;;;;;;5.97;3.00;;;;;;;9.91;91.56;99949.88;6003584;28;20030;-67
2022/11/04 08:25:44;;;;;;;5.83;3.10;;;;;;;9.90;90.85;99942.91;6002666;28;20435;-68
2022/11/04 08:28:39;;;;;;;5.97;3.55;;;;;;;9.94;90.48;99937.16;6002907;28;20034;-68
2022/11/04 08:31:36;;;;;;;10.23;3.20;;;;;;;9.98;89.97;99954.34;6002348;28;20043;-68
2022/11/04 08:34:31;;;;;;;8.18;4.32;;;;;;;10.03;89.82;99956.50;6001991;28;20031;-68
2022/11/04 08:37:26;;;;;;;7.20;2.80;;;;;;;9.99;89.87;99953.38;6002503;28;20046;-68
2022/11/04 08:40:23;;;;;;;6.35;2.67;;;;;;;9.94;89.41;99960.97;6001858;28;20031;-68
2022/11/04 08:43:18;;;;;;;6.40;2.92;;;;;;;9.97;89.16;99951.88;6001932;28;20129;-68
2022/11/04 08:46:14;;;;;;;7.80;3.00;;;;;;;10.10;89.22;99952.25;6002383;28;20459;-68
2022/11/04 08:49:10;;;;;;;7.22;3.22;;;;;;;10.11;89.32;99959.19;6001929;28;20302;-68
2022/11/04 08:52:05;;;;;;;8.85;3.15;;;;;;;10.30;88.60;99968.72;6001448;28;20051;-67
2022/11/04 08:55:01;;;;;;;5.73;2.93;;;;;;;10.37;89.01;99969.72;6002036;28;20043;-68
2022/11/04 08:57:57;;;;;;;5.65;2.58;;;;;;;10.41;88.13;99971.88;6002030;28;20743;-68
2022/11/04 09:00:52;;;;;;;6.40;2.97;;;;;;;10.43;87.53;99972.56;6000296;28;20045;-67
2022/11/04 09:03:48;;;;;;;4.77;2.63;;;;;;;10.51;86.94;99993.78;5999749;28;20042;-68
2022/11/04 09:06:44;;;;;;;6.45;3.13;;;;;;;10.55;87.60;99999.56;6000775;28;20070;-68
2022/11/04 09:09:40;;;;;;;6.20;2.65;;;;;;;10.59;87.94;99988.50;6001286;28;20042;-68
2022/11/04 09:12:35;;;;;;;7.33;2.63;;;;;;;10.56;87.25;99980.88;6001180;28;20575;-67
2022/11/04 09:15:30;;;;;;;7.65;2.17;;;;;;;10.50;86.76;99975.38;6001568;28;20463;-68
2022/11/04 09:18:26;;;;;;;6.03;2.23;;;;;;;10.51;87.50;99985.84;6001132;28;20023;-68
2022/11/04 09:21:21;;;;;;;7.77;2.40;;;;;;;10.50;87.63;99970.91;6000912;28;20062;-67
2022/11/04 09:24:16;;;;;;;5.60;2.30;;;;;;;10.59;86.81;99959.31;6001030;28;20293;-68
2022/11/04 09:27:12;;;;;;;10.00;3.53;;;;;;;10.75;87.13;99975.25;5992806;28;20574;-68
2022/11/04 09:30:08;;;;;;;4.27;2.30;;;;;;;10.80;86.73;99966.78;6000759;28;20069;-68
2022/11/04 09:33:03;;;;;;;12.88;5.18;;;;;;;10.76;87.51;99958.31;6000722;28;20039;-68
2022/11/04 09:35:59;;;;;;;8.23;2.53;;;;;;;10.79;87.23;99959.00;6001415;28;20125;-68
2022/11/04 09:38:54;;;;;;;5.38;1.85;;;;;;;10.91;85.39;99957.66;6001304;28;20038;-68
2022/11/04 09:42:20;;;;;;;3.10;1.83;;;;;;;11.04;84.49;99963.28;6000457;28;20038;-68
2022/11/04 09:45:17;;;;;;;5.70;2.63;;;;;;;11.13;84.83;99962.28;5999343;28;20039;-68
2022/11/04 09:48:20;;;;;;;5.22;1.77;;;;;;;10.92;85.23;99933.63;6000471;28;20570;-68
2022/11/04 09:51:18;;;;;;;8.02;2.28;;;;;;;11.14;85.38;99940.06;5998783;28;20109;-67
2022/11/04 09:54:22;;;;;;;5.47;2.78;;;;;;;11.04;84.02;99942.06;5999584;28;20031;-68
2022/11/04 09:57:18;;;;;;;8.13;3.20;;;;;;;11.03;85.53;99933.28;5999607;28;20030;-67
2022/11/04 10:00:15;;;;;;;7.03;2.88;;;;;;;11.26;85.35;99949.31;5998736;28;20050;-68
2022/11/04 10:03:23;;;;;;;6.78;2.78;;;;;;;11.42;84.27;99946.63;5999194;28;20081;-68
2022/11/04 10:06:55;;;;;;;4.53;2.72;;;;;;;11.56;81.75;99953.06;5998510;28;20418;-69
2022/11/04 10:10:15;;;;;;;5.13;2.47;;;;;;;11.62;82.03;99942.59;6000598;28;20031;-68
2022/11/04 10:13:16;;;;;;;;;;;;;;;11.61;81.50;99946.22;6000987;28;20537;-68
2022/11/04 10:16:34;;;;;;;5.80;3.05;;;;;;;11.45;81.87;99940.97;6000116;28;20000;-68
2022/11/04 10:19:45;;;;;;;6.13;3.00;;;;;;;11.42;80.98;99940.47;5999126;28;20027;-68
2022/11/04 10:22:59;;;;;;;5.07;2.80;;;;;;;11.35;80.99;99949.16;5999232;28;20062;-67
2022/11/04 10:26:06;;;;;;;5.03;2.30;;;;;;;11.46;81.48;99971.84;6000292;28;20038;-68
2022/11/04 10:29:05;;;;;;;6.30;2.70;;;;;;;11.23;81.57;99973.53;5994930;28;20701;-68
2022/11/04 10:32:02;;;;;;;7.47;2.70;;;;;;;11.28;80.96;100003.06;5998518;28;20114;-68
2022/11/04 10:35:02;;;;;;;5.50;2.63;;;;;;;11.32;81.42;99988.47;5998627;28;20043;-68
2022/11/04 10:38:12;;;;;;;6.70;2.78;;;;;;;11.41;82.30;100003.41;5998424;28;20114;-67
2022/11/04 10:41:16;;;;;;;6.82;2.80;;;;;;;11.56;80.68;100012.31;5998011;28;20070;-68
2022/11/04 10:44:22;;;;;;;7.75;2.70;;;;;;;11.66;81.21;100012.94;5998403;28;20070;-68
2022/11/04 10:47:35;;;;;;;4.90;2.80;;;;;;;11.64;80.76;100014.94;5999598;28;20049;-68
2022/11/04 10:50:43;;;;;;;6.38;2.60;;;;;;;11.73;81.25;99998.03;5999142;28;20058;-68
2022/11/04 10:53:38;;;;;;;7.00;2.40;;;;;;;11.70;78.91;99995.72;5999389;28;20034;-68
2022/11/04 10:56:36;;;;;;;7.20;3.00;;;;;;;11.73;80.17;100015.78;5999277;28;20058;-68
2022/11/04 10:59:46;;;;;;;6.75;2.92;;;;;;;11.65;80.22;100010.47;5998884;28;20086;-68
2022/11/04 11:02:46;;;;;;;5.88;2.90;;;;;;;11.45;80.45;99996.72;5995187;28;20386;-68
2022/11/04 11:05:42;;;;;;;6.45;3.00;;;;;;;11.32;81.21;100015.00;5999493;28;20061;-68
2022/11/04 11:08:37;;;;;;;5.80;3.03;;;;;;;11.17;80.79;100012.19;5999851;28;20743;-67
2022/11/04 11:11:35;;;;;;;7.38;2.78;;;;;;;11.23;81.59;100008.88;5997399;28;20043;-67
2022/11/04 11:14:33;;;;;;;5.68;3.00;;;;;;;11.22;81.18;99987.81;5999095;28;20430;-67
2022/11/04 11:17:31;;;;;;;4.25;2.70;;;;;;;11.36;81.48;100003.03;5998814;28;20769;-68
2022/11/04 11:20:27;;;;;;;7.63;3.30;;;;;;;11.47;80.68;100001.88;5998220;28;20446;-68
2022/11/04 11:23:40;;;;;;;8.52;3.30;;;;;;;11.50;81.25;99994.38;5998353;28;20038;-68
2022/11/04 11:26:36;;;;;;;5.57;2.55;;;;;;;11.75;80.47;100011.13;5993901;28;20035;-68
2022/11/04 11:29:40;;;;;;;5.23;2.50;;;;;;;11.89;79.23;100008.59;5994803;28;20034;-68
2022/11/04 11:32:42;;;;;;;5.60;2.78;;;;;;;11.89;78.44;100005.94;5998398;28;20338;-68
2022/11/04 11:35:41;;;;;;;5.78;2.00;;;;;;;11.99;78.19;100019.00;5998381;28;20087;-68
2022/11/04 11:38:37;;;;;;;5.60;2.75;;;;;;;11.84;75.87;100016.25;5997093;28;20122;-67
2022/11/04 11:41:38;;;;;;;5.20;1.95;;;;;;;11.84;76.40;100010.94;5996727;28;20038;-68
2022/11/04 11:44:46;;;;;;;;;;;;;;;11.83;76.29;100035.84;5997547;28;20063;-67
2022/11/04 11:47:42;;;;;;;5.72;1.70;;;;;;;11.81;76.11;100021.91;5998433;28;20017;-68
2022/11/04 11:50:55;;;;;;;4.72;2.42;;;;;;;11.97;75.94;100030.81;5997577;28;20045;-68
2022/11/04 11:54:23;;;;;;;6.07;2.22;;;;;;;11.84;75.68;100020.75;5998286;28;20026;-67
2022/11/04 11:57:34;;;;;;;6.75;2.40;;;;;;;11.87;75.92;100010.59;5988853;28;20046;-68
2022/11/04 12:00:32;;;;;;;5.15;2.40;;;;;;;11.90;76.34;100018.22;6008603;28;20046;-68
2022/11/04 12:03:32;;;;;;;4.63;2.22;;;;;;;11.92;76.39;100002.94;5996131;28;20163;-68
2022/11/04 12:06:30;;;;;;;5.45;2.00;;;;;;;12.04;76.98;100015.84;5997486;28;20039;-68
2022/11/04 12:09:52;;;;;;;5.22;2.30;;;;;;;11.93;76.68;100009.91;5997830;28;20050;-68
2022/11/04 12:12:56;;;;;;;4.00;2.40;;;;;;;11.90;77.15;100009.44;5970373;28;20532;-69
2022/11/04 12:16:00;;;;;;;5.47;2.17;;;;;;;11.83;75.84;100006.63;5997548;28;20557;-68
2022/11/04 12:19:11;;;;;;;5.63;2.60;;;;;;;11.89;75.22;100019.22;5988112;28;20031;-68
2022/11/04 12:22:16;;;;;;;3.88;2.17;;;;;;;11.94;76.19;100022.19;5997667;28;20073;-68
2022/11/04 12:25:32;;;;;;;6.38;2.38;;;;;;;11.94;76.73;100024.00;5996300;28;20498;-68
2022/11/04 12:28:40;;;;;;;4.72;2.33;;;;;;;12.00;75.91;100027.81;5997699;28;20612;-67
2022/11/04 12:31:51;;;;;;;6.07;2.13;;;;;;;11.93;76.30;100022.34;5996668;28;20109;-67
2022/11/04 12:34:59;;;;;;;5.63;2.40;;;;;;;11.99;75.86;100023.50;5997635;28;20557;-68
2022/11/04 12:38:16;;;;;;;3.67;2.40;;;;;;;11.91;76.89;100025.19;5988669;28;20383;-68
2022/11/04 12:41:39;;;;;;;4.55;2.25;;;;;;;11.89;76.18;100045.78;6000078;28;20629;-67
2022/11/04 12:45:22;;;;;;;7.63;2.22;;;;;;;12.02;77.41;100049.72;6000599;28;20046;-68
2022/11/04 12:48:35;;;;;;;5.18;2.00;;;;;;;11.83;76.07;100051.78;5998947;28;20047;-68
2022/11/04 12:51:52;;;;;;;5.90;2.20;;;;;;;11.67;77.49;100040.34;6001335;28;20034;-68
2022/11/04 12:55:12;;;;;;;4.13;2.00;;;;;;;11.72;77.01;100060.09;6001284;28;20031;-68
2022/11/04 12:58:38;;;;;;;4.60;1.77;;;;;;;11.79;76.86;100055.78;6001553;28;20149;-67
2022/11/04 13:01:36;;;;;;;;;;;;;;;11.75;77.48;100070.41;5992836;28;20042;-68
2022/11/04 13:04:35;;;;;;;5.90;1.80;;;;;;;11.79;77.28;100061.09;6000170;28;20080;-69
2022/11/04 13:07:46;;;;;;;6.22;2.20;;;;;;;11.78;76.34;100058.59;6001658;28;20096;-68
2022/11/04 13:10:42;;;;;;;5.63;2.35;;;;;;;11.88;76.54;100075.16;6001557;28;20101;-68
2022/11/04 13:13:38;;;;;;;5.10;2.00;;;;;;;11.83;76.29;100073.03;6000145;28;20043;-68
2022/11/04 13:16:38;;;;;;;3.78;1.70;;;;;;;11.83;75.65;100085.47;6001988;28;20033;-68
2022/11/04 13:19:38;;;;;;;7.10;2.00;;;;;;;11.77;76.27;100068.38;6000261;28;20423;-68
2022/11/04 13:22:35;;;;;;;4.85;2.17;;;;;;;11.78;76.27;100074.53;5999251;28;20695;-67
2022/11/04 13:25:39;;;;;;;2.60;1.77;;;;;;;11.81;76.35;100080.34;6000970;28;20035;-68
2022/11/04 13:28:39;;;;;;;4.75;2.00;;;;;;;11.74;77.78;100065.25;6000953;28;20455;-67
2022/11/04 13:31:54;;;;;;;6.75;2.40;;;;;;;11.90;77.83;100084.63;6000754;28;20481;-68
2022/11/04 13:35:18;;;;;;;4.13;1.70;;;;;;;11.84;78.31;100076.53;6000079;28;20177;-68
2022/11/04 13:38:22;;;;;;;5.10;1.70;;;;;;;11.73;78.78;100083.03;5999865;28;20035;-67
2022/11/04 13:41:33;;;;;;;5.82;2.00;;;;;;;11.55;78.27;100095.63;5999296;28;20046;-68
2022/11/04 13:44:36;;;;;;;3.13;1.52;;;;;;;11.38;78.63;100093.16;6000622;28;20046;-68
2022/11/04 13:47:35;;;;;;;6.18;1.92;;;;;;;11.34;79.87;100095.28;6000948;28;20124;-68
2022/11/04 13:50:34;;;;;;;3.50;1.70;;;;;;;11.20;80.33;100088.81;6001186;28;20034;-68
2022/11/04 13:53:59;;;;;;;4.20;2.00;;;;;;;11.30;80.74;100096.63;6000480;28;20034;-67
2022/11/04 13:57:14;;;;;;;6.97;2.40;;;;;;;11.28;81.19;100098.59;5996017;28;20039;-68
2022/11/04 14:00:12;;;;;;;5.50;2.28;;;;;;;11.38;80.88;100109.06;5995611;28;20385;-68
2022/11/04 14:03:26;;;;;;;3.92;2.30;;;;;;;11.35;80.28;100104.94;5998052;28;20039;-68
2022/11/04 14:06:46;;;;;;;4.68;1.92;;;;;;;11.28;80.25;100117.19;6000475;28;20082;-67
2022/11/04 14:09:41;;;;;;;6.25;2.08;;;;;;;11.33;81.00;100112.25;5999959;28;20038;-68
2022/11/04 14:12:38;;;;;;;4.63;2.03;;;;;;;11.28;80.00;100112.72;5999684;28;20046;-68
2022/11/04 14:16:06;;;;;;;9.95;2.75;;;;;;;11.31;79.06;100120.34;6000132;28;20037;-68
2022/11/04 14:19:41;;;;;;;5.00;3.17;;;;;;;11.37;80.00;100129.47;5994549;28;20074;-67
2022/11/04 14:22:42;;;;;;;7.05;2.38;;;;;;;11.34;79.07;100138.59;5999214;28;20463;-68
2022/11/04 14:25:39;;;;;;;3.83;2.42;;;;;;;11.24;79.72;100139.75;5999981;28;20810;-68
2022/11/04 14:28:35;;;;;;;4.95;2.88;;;;;;;11.25;79.87;100138.78;5999830;28;20038;-68
2022/11/04 14:31:38;;;;;;;9.10;3.15;;;;;;;11.12;80.00;100135.75;5999284;28;20053;-68
2022/11/04 14:34:36;;;;;;;6.15;2.45;;;;;;;11.10;80.01;100153.66;5998645;28;20037;-68
2022/11/04 14:37:33;;;;;;;4.25;2.22;;;;;;;11.00;80.35;100153.00;5997995;28;20038;-68